Time;durP1;ratioP1;P1;durP2;ratioP2;P2;SDS_P1;SDS_P2;PMS_P1;PMS_P2;Temp;Humidity;BMP_temperature;BMP_pressure;BME280_temperature;BME280_humidity;BME280_pressure;Samples;Min_cycle;Max_cycle;Signal;HPM_P1;HPM_P2
2024/03/28 00:00:47;;;;;;;2.55;1.30;;;;;;;3.15;100.00;94689.50;5050432;28;20047;-62
2024/03/28 00:03:13;;;;;;;2.90;1.40;;;;;;;3.16;100.00;94689.25;5051541;28;20678;-63
2024/03/28 00:05:38;;;;;;;11.40;4.47;;;;;;;3.23;100.00;94702.34;5045083;28;20128;-63
2024/03/28 00:08:04;;;;;;;3.22;1.40;;;;;;;3.04;100.00;94697.56;5047485;28;20044;-63
2024/03/28 00:10:30;;;;;;;2.20;1.08;;;;;;;2.59;100.00;94690.09;5049748;28;20043;-62
2024/03/28 00:12:56;;;;;;;3.97;1.10;;;;;;;2.41;100.00;94690.63;5048074;28;20033;-62
2024/03/28 00:15:21;;;;;;;3.00;1.35;;;;;;;2.28;100.00;94691.97;5049984;28;20035;-63
2024/03/28 00:17:48;;;;;;;1.88;1.10;;;;;;;2.36;100.00;94699.44;5049044;28;20452;-63
2024/03/28 00:20:13;;;;;;;2.88;1.33;;;;;;;2.37;100.00;94701.06;5053300;28;20040;-62
2024/03/28 00:22:39;;;;;;;2.30;1.25;;;;;;;2.24;100.00;94690.91;5050388;28;20049;-64
2024/03/28 00:25:05;;;;;;;5.10;1.30;;;;;;;2.05;100.00;94699.41;5047758;28;20042;-63
2024/03/28 00:27:31;;;;;;;2.53;1.30;;;;;;;1.70;100.00;94699.06;5044168;28;20492;-63
2024/03/28 00:29:56;;;;;;;3.15;1.50;;;;;;;1.67;100.00;94705.69;5050272;28;20051;-62
2024/03/28 00:32:22;;;;;;;3.47;1.40;;;;;;;1.72;100.00;94701.44;5046345;28;20040;-62
2024/03/28 00:34:47;;;;;;;3.10;1.63;;;;;;;1.81;100.00;94691.88;5043475;28;20045;-60
2024/03/28 00:37:13;;;;;;;5.65;2.50;;;;;;;1.97;100.00;94700.72;5046567;28;20037;-64
2024/03/28 00:39:39;;;;;;;6.03;2.70;;;;;;;2.07;100.00;94694.59;5055612;28;20094;-62
2024/03/28 00:42:04;;;;;;;4.72;2.50;;;;;;;2.30;100.00;94687.16;5049457;28;20045;-64
2024/03/28 00:44:30;;;;;;;3.58;2.10;;;;;;;2.28;100.00;94683.97;5046792;28;20035;-62
2024/03/28 00:46:55;;;;;;;4.80;2.53;;;;;;;2.32;100.00;94683.16;5045088;28;20033;-63
2024/03/28 00:49:21;;;;;;;5.07;2.20;;;;;;;2.36;100.00;94669.28;5058593;28;20551;-63
2024/03/28 00:51:47;;;;;;;5.25;2.20;;;;;;;2.45;100.00;94667.69;5042368;28;20427;-61
2024/03/28 00:54:12;;;;;;;4.22;2.20;;;;;;;2.39;100.00;94672.22;5045367;28;20106;-63
2024/03/28 00:56:39;;;;;;;4.35;2.45;;;;;;;2.45;100.00;94681.03;5031193;28;20033;-62
2024/03/28 00:59:04;;;;;;;5.45;2.25;;;;;;;2.46;100.00;94674.59;5049083;28;20044;-61
2024/03/28 01:01:30;;;;;;;4.22;2.38;;;;;;;2.42;100.00;94674.34;5047754;28;20040;-62
2024/03/28 01:03:56;;;;;;;5.55;2.45;;;;;;;2.48;100.00;94672.50;5046853;28;20125;-63
2024/03/28 01:06:22;;;;;;;4.13;2.20;;;;;;;2.50;100.00;94665.00;5044022;28;20573;-62
2024/03/28 01:08:47;;;;;;;4.00;1.92;;;;;;;2.46;100.00;94666.59;5045530;28;20069;-62
2024/03/28 01:11:13;;;;;;;5.53;2.28;;;;;;;2.49;100.00;94658.06;5047972;28;20077;-63
2024/03/28 01:13:40;;;;;;;4.43;2.40;;;;;;;2.50;100.00;94653.53;5053737;28;20683;-61
2024/03/28 01:16:06;;;;;;;5.30;2.47;;;;;;;2.52;100.00;94651.38;5053456;28;20045;-62
2024/03/28 01:18:32;;;;;;;4.25;2.28;;;;;;;2.49;100.00;94650.03;5050189;28;20106;-62
2024/03/28 01:21:03;;;;;;;4.45;2.50;;;;;;;2.50;100.00;94659.66;5049005;28;20389;-62
2024/03/28 01:23:30;;;;;;;4.85;2.15;;;;;;;2.48;100.00;94648.44;5046077;28;20106;-63
2024/03/28 01:26:01;;;;;;;3.90;2.05;;;;;;;2.51;100.00;94650.56;5044309;28;20052;-63
2024/03/28 01:28:26;;;;;;;5.32;2.22;;;;;;;2.49;100.00;94646.56;5057328;28;20556;-63
2024/03/28 01:31:01;;;;;;;4.78;2.17;;;;;;;2.33;100.00;94636.69;5050547;28;20049;-62
2024/03/28 01:33:27;;;;;;;4.45;2.35;;;;;;;2.33;100.00;94627.88;5054672;28;20036;-61
2024/03/28 01:35:53;;;;;;;4.97;2.80;;;;;;;2.31;100.00;94633.50;5049535;28;20049;-63
2024/03/28 01:38:19;;;;;;;4.70;2.63;;;;;;;2.30;100.00;94623.88;5052606;28;20126;-62
2024/03/28 01:40:44;;;;;;;6.18;2.67;;;;;;;2.31;100.00;94624.66;5051294;28;20072;-62
2024/03/28 01:43:10;;;;;;;5.78;2.45;;;;;;;2.36;100.00;94626.56;5050584;28;20033;-61
2024/03/28 01:45:36;;;;;;;5.50;2.50;;;;;;;2.26;100.00;94632.69;5045170;28;20536;-62
2024/03/28 01:48:01;;;;;;;5.85;2.97;;;;;;;2.30;100.00;94639.91;5053709;28;20033;-62
2024/03/28 01:50:28;;;;;;;5.80;2.72;;;;;;;2.27;100.00;94631.59;5052435;28;20131;-62
2024/03/28 01:52:55;;;;;;;7.13;3.17;;;;;;;2.31;100.00;94638.03;5048193;28;20064;-62
2024/03/28 01:55:21;;;;;;;7.40;2.35;;;;;;;2.34;100.00;94637.50;5049143;28;20417;-61
2024/03/28 01:57:47;;;;;;;6.63;3.38;;;;;;;2.34;100.00;94632.16;5050034;28;20107;-63
2024/03/28 02:00:15;;;;;;;5.35;2.40;;;;;;;2.35;100.00;94628.41;5050279;28;20479;-62
2024/03/28 02:02:42;;;;;;;5.20;2.80;;;;;;;2.41;100.00;94631.88;5056458;28;20586;-62
2024/03/28 02:05:08;;;;;;;5.40;2.97;;;;;;;2.46;100.00;94627.34;5050330;28;20048;-60
2024/03/28 02:07:34;;;;;;;5.43;3.30;;;;;;;2.42;100.00;94626.28;5045873;28;20431;-63
2024/03/28 02:10:00;;;;;;;4.00;2.38;;;;;;;2.44;100.00;94636.69;5049919;28;20057;-62
2024/03/28 02:12:25;;;;;;;4.63;2.40;;;;;;;2.42;100.00;94634.28;5040492;28;20072;-62
2024/03/28 02:14:51;;;;;;;4.68;2.88;;;;;;;2.36;100.00;94637.22;5049850;28;20796;-60
2024/03/28 02:17:16;;;;;;;5.68;3.00;;;;;;;2.36;100.00;94638.00;5053079;28;20593;-62
2024/03/28 02:19:42;;;;;;;5.50;2.88;;;;;;;2.33;100.00;94647.38;5058339;28;20059;-63
2024/03/28 02:22:08;;;;;;;5.22;2.72;;;;;;;2.34;100.00;94645.50;5059760;28;20040;-61
2024/03/28 02:24:35;;;;;;;5.15;3.22;;;;;;;2.27;100.00;94645.78;5057439;28;20059;-61
2024/03/28 02:27:01;;;;;;;5.57;3.22;;;;;;;2.20;100.00;94638.03;5057404;28;20048;-62
2024/03/28 02:29:26;;;;;;;5.03;2.88;;;;;;;2.16;100.00;94630.81;5061765;28;20131;-62
2024/03/28 02:31:52;;;;;;;5.88;3.22;;;;;;;2.10;100.00;94631.88;5050987;28;20045;-63
2024/03/28 02:34:18;;;;;;;5.43;3.08;;;;;;;2.00;100.00;94627.31;5057383;28;20074;-60
2024/03/28 02:36:43;;;;;;;7.32;3.70;;;;;;;1.86;100.00;94625.19;5049304;28;20048;-62
2024/03/28 02:39:10;;;;;;;6.00;3.05;;;;;;;1.83;100.00;94617.69;5053991;28;20680;-60
2024/03/28 02:41:36;;;;;;;6.05;3.38;;;;;;;1.76;100.00;94622.47;5061331;28;20652;-61
2024/03/28 02:44:01;;;;;;;7.00;3.50;;;;;;;1.66;100.00;94626.72;5048478;28;20043;-63
2024/03/28 02:46:27;;;;;;;6.50;3.42;;;;;;;1.59;100.00;94626.19;5052735;28;20639;-62
2024/03/28 02:48:52;;;;;;;6.82;3.78;;;;;;;1.57;100.00;94620.31;5054625;28;20115;-62
2024/03/28 02:51:18;;;;;;;5.93;3.65;;;;;;;1.53;100.00;94619.22;5056354;28;20495;-60
2024/03/28 02:53:43;;;;;;;5.72;3.42;;;;;;;1.53;100.00;94627.22;5058761;28;20582;-62
2024/03/28 02:56:09;;;;;;;6.72;3.72;;;;;;;1.58;100.00;94635.25;5050263;28;20118;-60
2024/03/28 02:58:34;;;;;;;6.95;3.85;;;;;;;1.69;100.00;94639.53;5053581;28;20044;-63
2024/03/28 03:01:04;;;;;;;7.40;4.47;;;;;;;1.83;100.00;94630.25;5058762;28;20041;-62
2024/03/28 03:03:29;;;;;;;7.47;4.22;;;;;;;1.85;100.00;94636.09;5055467;28;20706;-62
2024/03/28 03:05:55;;;;;;;7.35;4.10;;;;;;;1.83;100.00;94636.38;5058361;28;20087;-62
2024/03/28 03:08:21;;;;;;;7.32;3.40;;;;;;;1.83;100.00;94635.59;5057245;28;20052;-62
2024/03/28 03:10:46;;;;;;;7.50;3.80;;;;;;;1.83;100.00;94631.03;5048745;28;20040;-63
2024/03/28 03:13:12;;;;;;;7.38;3.75;;;;;;;1.78;100.00;94634.50;5056451;28;20102;-60
2024/03/28 03:15:37;;;;;;;7.90;4.47;;;;;;;1.67;100.00;94644.31;5044136;28;20040;-63
2024/03/28 03:18:03;;;;;;;8.57;4.75;;;;;;;1.67;100.00;94635.53;5051210;28;20045;-62
2024/03/28 03:20:36;;;;;;;9.00;4.88;;;;;;;1.66;100.00;94636.63;5055107;28;20059;-63
2024/03/28 03:23:05;;;;;;;9.55;4.28;;;;;;;1.61;100.00;94632.06;5049134;28;20093;-61
2024/03/28 03:25:41;;;;;;;7.85;4.43;;;;;;;1.67;100.00;94638.22;5059671;28;20040;-61
2024/03/28 03:36:21;;;;;;;10.30;5.50;;;;;;;1.60;100.00;94603.78;5053296;28;20545;-63
2024/03/28 03:38:47;;;;;;;10.68;5.50;;;;;;;1.56;100.00;94611.50;5061339;28;20039;-63
2024/03/28 03:41:12;;;;;;;8.75;5.15;;;;;;;1.58;100.00;94605.91;5060862;28;20110;-61
2024/03/28 03:43:38;;;;;;;9.68;4.93;;;;;;;1.51;100.00;94608.81;5061597;28;20043;-62
2024/03/28 03:46:04;;;;;;;10.95;4.80;;;;;;;1.56;100.00;94610.72;5052268;28;20079;-63
2024/03/28 03:48:29;;;;;;;8.07;4.55;;;;;;;1.56;100.00;94613.38;5062516;28;20044;-62
2024/03/28 03:50:56;;;;;;;7.32;4.25;;;;;;;1.61;100.00;94621.38;5055329;28;20049;-61
2024/03/28 03:53:22;;;;;;;6.82;3.95;;;;;;;1.60;100.00;94618.97;5057147;28;20044;-62
2024/03/28 03:55:56;;;;;;;7.80;4.35;;;;;;;1.56;100.00;94621.38;5059231;28;20039;-64
2024/03/28 03:58:22;;;;;;;7.90;4.53;;;;;;;1.48;100.00;94621.88;5056437;28;20033;-61
2024/03/28 04:00:47;;;;;;;6.78;4.18;;;;;;;1.47;100.00;94618.41;5060522;28;20040;-62
2024/03/28 04:03:13;;;;;;;8.30;4.65;;;;;;;1.51;100.00;94629.38;5060694;28;20072;-62
2024/03/28 04:05:39;;;;;;;7.20;4.30;;;;;;;1.46;100.00;94621.31;5057233;28;20036;-61
2024/03/28 04:08:05;;;;;;;7.30;4.30;;;;;;;1.47;100.00;94610.41;5062346;28;20036;-63
2024/03/28 04:10:31;;;;;;;6.85;4.45;;;;;;;1.40;100.00;94609.88;5055114;28;20440;-63
2024/03/28 04:12:56;;;;;;;8.90;4.38;;;;;;;1.34;100.00;94592.25;5050194;28;20072;-62
2024/03/28 04:15:22;;;;;;;9.15;4.97;;;;;;;1.40;100.00;94576.00;5055823;28;20052;-63
2024/03/28 04:17:48;;;;;;;8.07;4.22;;;;;;;1.46;100.00;94574.16;5059780;28;20061;-63
2024/03/28 04:20:13;;;;;;;7.30;3.95;;;;;;;1.38;100.00;94575.47;5055037;28;20473;-62
2024/03/28 04:22:39;;;;;;;6.88;3.75;;;;;;;1.29;100.00;94569.03;5052121;28;20048;-62
2024/03/28 04:25:05;;;;;;;7.53;4.07;;;;;;;1.29;100.00;94547.72;5048638;28;20476;-64
2024/03/28 04:27:30;;;;;;;8.77;4.72;;;;;;;1.34;100.00;94541.59;5055351;28;21595;-63
2024/03/28 04:29:56;;;;;;;7.90;4.45;;;;;;;1.38;100.00;94540.81;5054691;28;20048;-62
2024/03/28 04:32:22;;;;;;;8.15;4.72;;;;;;;1.42;100.00;94541.06;5052973;28;20044;-61
2024/03/28 04:34:48;;;;;;;8.95;5.22;;;;;;;1.37;100.00;94543.72;5053675;28;20444;-62
2024/03/28 04:37:14;;;;;;;7.70;4.10;;;;;;;1.51;100.00;94557.38;5046129;28;20044;-61
2024/03/28 04:39:43;;;;;;;8.30;4.72;;;;;;;1.55;100.00;94548.56;5046489;28;20609;-62
2024/03/28 04:42:08;;;;;;;7.45;4.20;;;;;;;1.49;100.00;94546.97;5045814;28;20037;-63
2024/03/28 04:44:34;;;;;;;8.15;4.30;;;;;;;1.43;100.00;94548.81;5051564;28;20574;-62
2024/03/28 04:47:00;;;;;;;8.63;5.00;;;;;;;1.36;100.00;94542.91;5055433;28;20059;-62
2024/03/28 04:49:25;;;;;;;8.35;5.15;;;;;;;1.28;100.00;94541.56;5056814;28;20037;-62
2024/03/28 04:51:51;;;;;;;8.35;5.45;;;;;;;1.16;100.00;94533.81;5056507;28;20037;-64
2024/03/28 04:54:17;;;;;;;7.93;4.65;;;;;;;1.18;100.00;94528.19;5060589;28;20561;-63
2024/03/28 04:56:42;;;;;;;8.07;4.85;;;;;;;1.19;100.00;94537.00;5052251;28;20029;-62
2024/03/28 04:59:08;;;;;;;8.52;4.72;;;;;;;1.19;100.00;94532.50;5049140;28;20040;-63
2024/03/28 05:01:35;;;;;;;7.90;4.40;;;;;;;1.21;100.00;94534.91;5052677;28;20040;-61
2024/03/28 05:04:01;;;;;;;7.55;4.20;;;;;;;1.19;100.00;94545.81;5055470;28;20041;-62
2024/03/28 05:06:26;;;;;;;8.02;4.32;;;;;;;1.12;100.00;94545.25;5049811;28;20399;-63
2024/03/28 05:08:52;;;;;;;8.43;4.80;;;;;;;1.20;100.00;94533.28;5058398;28;20045;-61
2024/03/28 05:11:19;;;;;;;7.70;4.90;;;;;;;1.14;100.00;94535.16;5063089;28;20070;-62
2024/03/28 05:13:45;;;;;;;9.18;4.45;;;;;;;1.12;100.00;94542.59;5048255;28;20409;-65
2024/03/28 05:16:14;;;;;;;10.40;5.53;;;;;;;1.10;100.00;94545.50;5056802;28;20093;-62
2024/03/28 05:18:42;;;;;;;9.27;5.15;;;;;;;1.24;100.00;94537.03;5048233;28;20069;-61
2024/03/28 05:21:07;;;;;;;9.13;5.40;;;;;;;1.28;100.00;94543.44;5059503;28;20055;-63
2024/03/28 05:23:33;;;;;;;8.57;5.00;;;;;;;1.33;100.00;94538.13;5060813;28;20032;-63
2024/03/28 05:25:58;;;;;;;8.85;5.03;;;;;;;1.44;100.00;94538.97;5056670;28;20523;-61
2024/03/28 05:28:24;;;;;;;7.90;5.00;;;;;;;1.50;100.00;94545.88;5053473;28;20885;-61
2024/03/28 05:30:52;;;;;;;9.48;5.35;;;;;;;1.54;100.00;94549.63;5052862;28;20048;-63
2024/03/28 05:33:17;;;;;;;10.77;5.32;;;;;;;1.60;100.00;94544.28;5049893;28;20053;-63
2024/03/28 05:35:43;;;;;;;9.95;5.18;;;;;;;1.68;100.00;94543.78;5053972;28;20090;-61
2024/03/28 05:38:09;;;;;;;9.27;5.15;;;;;;;1.72;100.00;94554.72;5052578;28;20041;-62
2024/03/28 05:40:34;;;;;;;11.55;5.00;;;;;;;1.74;100.00;94547.25;5057596;28;20040;-62
2024/03/28 05:43:00;;;;;;;9.05;5.22;;;;;;;1.80;100.00;94540.84;5062209;28;20135;-63
2024/03/28 05:45:25;;;;;;;8.80;5.03;;;;;;;1.85;100.00;94538.19;5054130;28;20063;-62
2024/03/28 05:47:51;;;;;;;9.73;6.47;;;;;;;1.91;100.00;94521.09;5057162;28;20735;-63
2024/03/28 05:50:16;;;;;;;11.40;6.22;;;;;;;2.00;100.00;94525.91;5052888;28;20065;-62
2024/03/28 05:52:42;;;;;;;10.70;5.63;;;;;;;2.10;100.00;94533.91;5047876;28;20048;-62
2024/03/28 05:55:09;;;;;;;9.48;5.05;;;;;;;2.24;100.00;94531.50;5060933;28;20053;-62
2024/03/28 05:57:34;;;;;;;8.77;5.38;;;;;;;2.41;100.00;94533.06;5058635;28;20032;-62
2024/03/28 06:00:00;;;;;;;8.70;5.43;;;;;;;2.44;100.00;94529.88;5048712;28;20053;-62
2024/03/28 06:02:26;;;;;;;10.00;5.30;;;;;;;2.59;100.00;94539.72;5052846;28;20033;-63
2024/03/28 06:04:51;;;;;;;7.53;5.00;;;;;;;2.68;100.00;94526.59;5053813;28;20461;-63
2024/03/28 06:07:17;;;;;;;7.93;4.75;;;;;;;2.81;100.00;94541.25;5051380;28;20071;-63
2024/03/28 06:09:44;;;;;;;7.38;4.53;;;;;;;2.99;100.00;94542.53;5060708;28;20063;-64
2024/03/28 06:12:10;;;;;;;7.07;4.25;;;;;;;3.27;100.00;94542.16;5052875;28;20527;-61
2024/03/28 06:14:38;;;;;;;8.05;5.15;;;;;;;3.38;100.00;94536.47;5056893;28;20051;-62
2024/03/28 06:17:04;;;;;;;6.65;3.58;;;;;;;3.53;100.00;94542.00;5063522;28;20120;-63
2024/03/28 06:19:30;;;;;;;7.20;4.05;;;;;;;3.54;100.00;94541.69;5055708;28;20051;-62
2024/03/28 06:21:55;;;;;;;7.90;3.95;;;;;;;3.51;100.00;94548.41;5053368;28;20696;-63
2024/03/28 06:24:21;;;;;;;7.80;4.35;;;;;;;3.61;100.00;94538.75;5052661;28;20048;-62
2024/03/28 06:26:47;;;;;;;7.53;4.30;;;;;;;3.65;100.00;94542.47;5052259;28;20055;-64
2024/03/28 06:29:13;;;;;;;6.10;3.42;;;;;;;3.71;100.00;94545.88;5049320;28;20465;-63
2024/03/28 06:31:40;;;;;;;7.38;4.28;;;;;;;3.71;100.00;94545.88;5051279;28;20126;-64
2024/03/28 06:34:06;;;;;;;7.15;4.32;;;;;;;3.74;100.00;94550.69;5065188;28;20424;-64
2024/03/28 06:36:32;;;;;;;7.18;3.85;;;;;;;3.85;100.00;94549.56;5052421;28;20907;-64
2024/03/28 06:38:57;;;;;;;5.95;3.22;;;;;;;4.04;100.00;94556.91;5051431;28;20041;-63
2024/03/28 06:41:23;;;;;;;7.20;3.90;;;;;;;3.96;100.00;94563.66;5058042;28;20056;-63
2024/03/28 06:43:49;;;;;;;6.18;3.53;;;;;;;3.98;100.00;94564.16;5055318;28;21838;-63
2024/03/28 06:46:15;;;;;;;6.80;3.97;;;;;;;3.90;100.00;94570.94;5055900;28;20052;-62
2024/03/28 06:48:42;;;;;;;7.32;4.65;;;;;;;3.81;100.00;94579.81;5056288;28;20049;-63
2024/03/28 06:51:07;;;;;;;7.82;4.90;;;;;;;3.77;100.00;94585.72;5059708;28;20049;-62
2024/03/28 06:53:33;;;;;;;8.38;4.85;;;;;;;3.77;100.00;94577.69;5062493;28;20393;-63
2024/03/28 06:55:58;;;;;;;8.10;4.60;;;;;;;3.81;100.00;94593.19;5063031;28;20036;-64
2024/03/28 06:58:24;;;;;;;7.13;4.05;;;;;;;3.85;100.00;94597.72;5048228;28;20589;-61
2024/03/28 07:01:00;;;;;;;6.63;4.25;;;;;;;3.80;100.00;94595.09;5057720;28;20048;-64
2024/03/28 07:03:26;;;;;;;7.65;4.15;;;;;;;3.67;100.00;94609.88;5060984;28;20044;-62
2024/03/28 07:05:51;;;;;;;6.70;3.72;;;;;;;3.63;100.00;94616.84;5052245;28;20524;-64
2024/03/28 07:08:17;;;;;;;6.70;4.15;;;;;;;3.63;100.00;94619.53;5059527;28;20042;-63
2024/03/28 07:10:42;;;;;;;6.60;4.05;;;;;;;3.67;100.00;94615.22;5049563;28;20117;-63
2024/03/28 07:13:08;;;;;;;7.05;4.20;;;;;;;3.73;100.00;94613.34;5054140;28;20043;-63
2024/03/28 07:15:33;;;;;;;6.32;3.75;;;;;;;3.80;100.00;94613.03;5051163;28;20051;-63
2024/03/28 07:17:59;;;;;;;8.50;4.30;;;;;;;3.87;100.00;94603.59;5052463;28;20126;-63
2024/03/28 07:20:24;;;;;;;6.25;3.63;;;;;;;4.03;100.00;94593.56;5059553;28;20040;-61
2024/03/28 07:22:50;;;;;;;6.28;4.05;;;;;;;4.11;100.00;94602.09;5056630;28;20048;-63
2024/03/28 07:25:17;;;;;;;8.93;4.10;;;;;;;4.16;100.00;94605.53;5057128;28;20060;-64
2024/03/28 07:27:43;;;;;;;8.32;3.80;;;;;;;4.06;100.00;94627.06;5046733;28;20110;-63
2024/03/28 07:30:10;;;;;;;7.07;4.00;;;;;;;4.06;100.00;94645.00;5057268;28;20650;-61
2024/03/28 07:32:36;;;;;;;6.47;3.67;;;;;;;4.01;100.00;94635.91;5055617;28;20041;-64
2024/03/28 07:35:01;;;;;;;7.20;3.45;;;;;;;4.06;100.00;94659.19;5051511;28;20055;-62
2024/03/28 07:37:27;;;;;;;5.88;3.45;;;;;;;4.11;100.00;94648.44;5064771;28;20037;-63
2024/03/28 07:39:53;;;;;;;6.22;3.85;;;;;;;4.26;100.00;94625.28;5061325;28;20557;-63
2024/03/28 07:42:19;;;;;;;5.43;3.33;;;;;;;4.30;100.00;94620.97;5060862;28;20037;-62
2024/03/28 07:44:44;;;;;;;6.03;3.30;;;;;;;4.31;100.00;94621.78;5053114;28;20052;-62
2024/03/28 07:47:10;;;;;;;5.63;3.28;;;;;;;4.39;100.00;94626.53;5052168;28;20604;-62
2024/03/28 07:49:35;;;;;;;5.68;2.55;;;;;;;4.55;100.00;94638.75;5059663;28;20132;-62
2024/03/28 07:52:02;;;;;;;5.95;3.63;;;;;;;4.57;100.00;94646.47;5051746;28;20127;-63
2024/03/28 07:54:30;;;;;;;5.10;2.97;;;;;;;4.58;100.00;94660.69;5051479;28;20061;-63
2024/03/28 07:56:56;;;;;;;4.47;2.40;;;;;;;4.64;100.00;94672.97;5039983;28;20083;-62
2024/03/28 07:59:21;;;;;;;5.45;2.88;;;;;;;4.55;100.00;94678.13;5045021;28;20041;-63
2024/03/28 08:01:47;;;;;;;7.13;3.35;;;;;;;4.49;100.00;94685.41;5052914;28;20032;-63
2024/03/28 08:04:13;;;;;;;6.10;2.83;;;;;;;4.54;100.00;94700.66;5053119;28;20037;-63
2024/03/28 08:06:41;;;;;;;5.82;3.10;;;;;;;4.57;100.00;94708.13;5049302;28;20043;-63
2024/03/28 08:09:08;;;;;;;5.93;3.20;;;;;;;4.64;100.00;94710.50;5054768;28;20033;-63
2024/03/28 08:11:34;;;;;;;4.88;2.45;;;;;;;4.73;100.00;94699.97;5058043;28;20790;-63
2024/03/28 08:14:00;;;;;;;6.07;3.25;;;;;;;4.89;100.00;94701.44;5051053;28;20048;-63
2024/03/28 08:16:26;;;;;;;5.07;2.75;;;;;;;4.98;100.00;94709.69;5050984;28;20049;-64
2024/03/28 08:18:53;;;;;;;5.53;2.63;;;;;;;5.08;100.00;94706.09;5063104;28;20037;-63
2024/03/28 08:21:19;;;;;;;4.70;2.33;;;;;;;5.19;100.00;94721.03;5048514;28;20041;-62
2024/03/28 08:23:44;;;;;;;4.45;2.35;;;;;;;5.44;100.00;94721.84;5053121;28;20197;-61
2024/03/28 08:26:10;;;;;;;4.45;2.30;;;;;;;5.42;100.00;94742.78;5055467;28;20294;-58
2024/03/28 08:28:35;;;;;;;4.57;2.40;;;;;;;5.44;100.00;94748.69;5052378;28;20036;-61
2024/03/28 08:31:06;;;;;;;5.22;2.47;;;;;;;5.52;100.00;94757.19;5053099;28;20500;-56
2024/03/28 08:33:34;;;;;;;4.50;1.95;;;;;;;5.65;100.00;94761.09;5057656;28;20187;-59
2024/03/28 08:36:02;;;;;;;3.80;2.05;;;;;;;6.07;100.00;94773.00;5045793;28;20041;-66
2024/03/28 08:38:28;;;;;;;2.95;1.67;;;;;;;6.03;100.00;94792.63;5058638;28;20044;-61
2024/03/28 08:40:54;;;;;;;3.33;1.65;;;;;;;6.07;100.00;94807.94;5055763;28;20040;-63
2024/03/28 08:43:19;;;;;;;3.60;1.65;;;;;;;6.13;100.00;94823.97;5060981;28;20044;-63
2024/03/28 08:45:46;;;;;;;3.00;1.77;;;;;;;6.22;100.00;94823.06;5060899;28;20508;-63
2024/03/28 08:48:12;;;;;;;4.35;1.80;;;;;;;6.30;100.00;94820.84;5056631;28;20094;-64
2024/03/28 08:50:37;;;;;;;3.13;1.60;;;;;;;6.10;100.00;94823.47;5054261;28;20445;-64
2024/03/28 08:53:03;;;;;;;3.22;1.67;;;;;;;6.05;100.00;94812.00;5057865;28;20768;-64
2024/03/28 08:55:28;;;;;;;2.90;1.45;;;;;;;5.99;100.00;94832.69;5056741;28;20149;-65
2024/03/28 08:57:54;;;;;;;2.97;1.10;;;;;;;6.16;100.00;94844.91;5053596;28;20045;-65
2024/03/28 09:00:23;;;;;;;2.78;1.08;;;;;;;6.12;100.00;94833.94;5054841;28;20040;-63
2024/03/28 09:02:48;;;;;;;2.92;1.08;;;;;;;6.04;100.00;94846.09;5052498;28;20045;-64
2024/03/28 09:05:15;;;;;;;3.75;1.08;;;;;;;6.26;100.00;94841.31;5056935;28;20045;-64
2024/03/28 09:07:41;;;;;;;2.10;1.02;;;;;;;6.15;100.00;94840.63;5056546;28;20070;-65
2024/03/28 09:10:09;;;;;;;1.77;0.90;;;;;;;6.18;100.00;94850.78;5059038;28;20040;-65
2024/03/28 09:12:35;;;;;;;1.98;0.98;;;;;;;6.12;100.00;94852.75;5052565;28;20602;-66
2024/03/28 09:15:02;;;;;;;1.55;0.65;;;;;;;6.10;100.00;94850.34;5054803;28;20032;-64
2024/03/28 09:17:27;;;;;;;1.20;0.50;;;;;;;6.30;100.00;94855.78;5051685;28;20032;-60
2024/03/28 09:19:53;;;;;;;1.48;0.80;;;;;;;6.14;100.00;94864.00;5056039;28;20037;-65
2024/03/28 09:22:25;;;;;;;1.27;0.65;;;;;;;6.12;100.00;94858.13;5049619;28;20041;-63
2024/03/28 09:24:50;;;;;;;0.95;0.60;;;;;;;6.36;100.00;94865.38;5050366;28;20044;-63
2024/03/28 09:27:16;;;;;;;2.92;0.80;;;;;;;6.23;100.00;94864.97;5050818;28;20534;-62
2024/03/28 09:29:42;;;;;;;1.40;0.82;;;;;;;6.26;100.00;94877.03;5055378;28;20403;-64
2024/03/28 09:32:08;;;;;;;5.15;0.50;;;;;;;6.17;100.00;94878.75;5050945;28;20041;-66
2024/03/28 09:34:37;;;;;;;1.52;0.60;;;;;;;6.38;100.00;94880.13;5051739;28;20067;-63
2024/03/28 09:37:07;;;;;;;3.17;0.65;;;;;;;6.44;100.00;94888.94;5049773;28;20033;-64
2024/03/28 09:39:33;;;;;;;1.55;0.70;;;;;;;6.45;100.00;94898.59;5056862;28;20579;-63
2024/03/28 09:42:07;;;;;;;1.80;0.60;;;;;;;6.40;100.00;94901.34;5057029;28;20095;-64
2024/03/28 09:44:33;;;;;;;1.55;0.70;;;;;;;6.40;100.00;94900.53;5057333;28;20048;-67
2024/03/28 09:46:59;;;;;;;2.38;0.70;;;;;;;6.58;100.00;94899.78;5046075;28;20037;-65
2024/03/28 09:49:27;;;;;;;1.48;0.60;;;;;;;6.56;100.00;94907.34;5057468;28;20044;-64
2024/03/28 09:51:56;;;;;;;1.35;0.52;;;;;;;6.75;100.00;94895.84;5054559;28;20053;-63
2024/03/28 09:54:22;;;;;;;2.63;0.90;;;;;;;7.04;100.00;94897.59;5058050;28;20068;-62
2024/03/28 09:56:48;;;;;;;1.20;0.30;;;;;;;6.89;100.00;94899.41;5046047;28;20479;-63
2024/03/28 09:59:13;;;;;;;2.20;0.88;;;;;;;7.08;100.00;94889.75;5049582;28;20049;-62
2024/03/28 10:01:41;;;;;;;6.95;0.95;;;;;;;7.22;100.00;94887.91;5053251;28;20507;-61
2024/03/28 10:04:08;;;;;;;0.80;0.50;;;;;;;7.13;100.00;94887.78;5056000;28;20048;-66
2024/03/28 10:06:35;;;;;;;3.17;0.60;;;;;;;6.91;100.00;94893.75;5053328;28;20766;-63
2024/03/28 10:09:02;;;;;;;1.52;0.60;;;;;;;7.04;100.00;94908.34;5055200;28;20446;-65
2024/03/28 10:11:27;;;;;;;2.30;0.50;;;;;;;7.24;100.00;94914.53;5053004;28;20095;-64
2024/03/28 10:13:53;;;;;;;0.30;0.30;;;;;;;7.36;100.00;94912.22;5055447;28;20060;-63
2024/03/28 10:16:19;;;;;;;0.25;0.22;;;;;;;7.09;100.00;94905.59;5049323;28;20048;-63
2024/03/28 10:18:45;;;;;;;0.50;0.30;;;;;;;7.31;100.00;94906.91;5049277;28;20155;-65
2024/03/28 10:21:14;;;;;;;3.10;0.57;;;;;;;7.60;100.00;94900.56;5048963;28;20067;-66
2024/03/28 10:23:39;;;;;;;1.15;0.30;;;;;;;7.57;100.00;94898.44;5054739;28;20041;-66
2024/03/28 10:26:09;;;;;;;0.35;0.30;;;;;;;7.57;100.00;94913.78;5048714;28;20051;-65
2024/03/28 10:28:36;;;;;;;1.00;0.40;;;;;;;7.44;100.00;94912.66;5058542;28;20036;-68
2024/03/28 10:31:04;;;;;;;0.73;0.32;;;;;;;7.64;100.00;94925.00;5047440;28;20091;-66
2024/03/28 10:33:33;;;;;;;0.77;0.30;;;;;;;7.46;100.00;94918.53;5053421;28;20040;-62
2024/03/28 10:36:00;;;;;;;0.85;0.30;;;;;;;7.51;100.00;94907.69;5048129;28;20045;-65
2024/03/28 10:38:26;;;;;;;1.05;0.30;;;;;;;7.76;100.00;94893.03;5054293;28;20040;-63
2024/03/28 10:40:58;;;;;;;0.73;0.40;;;;;;;8.04;100.00;94903.06;5048938;28;20073;-63
2024/03/28 10:43:27;;;;;;;0.90;0.38;;;;;;;8.20;100.00;94903.59;5064861;28;20068;-64
2024/03/28 10:45:59;;;;;;;2.28;0.22;;;;;;;8.37;100.00;94884.13;5050432;28;20048;-62
2024/03/28 10:48:26;;;;;;;1.20;0.20;;;;;;;8.53;100.00;94889.25;5051676;28;20044;-63
2024/03/28 10:51:30;;;;;;;1.40;0.63;;;;;;;8.53;100.00;94900.84;5055042;28;20443;-64
2024/03/28 10:54:14;;;;;;;0.30;0.20;;;;;;;8.40;100.00;94901.63;5054999;28;20601;-63
2024/03/28 10:56:41;;;;;;;2.33;0.28;;;;;;;8.51;100.00;94911.09;5052422;28;20044;-64
2024/03/28 10:59:09;;;;;;;0.45;0.30;;;;;;;8.54;100.00;94907.84;5049107;28;20040;-62
2024/03/28 11:01:35;;;;;;;1.20;0.30;;;;;;;8.81;100.00;94916.22;5049673;28;20049;-63
2024/03/28 11:04:02;;;;;;;0.98;0.30;;;;;;;9.00;100.00;94920.69;5059204;28;20045;-63
2024/03/28 11:06:28;;;;;;;0.10;0.10;;;;;;;9.01;100.00;94912.28;5049820;28;20041;-63
2024/03/28 11:08:54;;;;;;;0.88;0.20;;;;;;;9.01;100.00;94930.38;5052225;28;20574;-64
2024/03/28 11:11:20;;;;;;;1.55;0.20;;;;;;;9.23;100.00;94935.84;5048059;28;20040;-64
2024/03/28 11:13:47;;;;;;;0.15;0.10;;;;;;;9.35;100.00;94902.91;5049779;28;20101;-65
2024/03/28 11:16:15;;;;;;;0.10;0.10;;;;;;;9.29;99.96;94939.22;5043761;28;20673;-62
2024/03/28 11:18:42;;;;;;;1.10;0.45;;;;;;;9.33;95.69;94950.22;5056440;28;20044;-63
2024/03/28 11:21:08;;;;;;;0.20;0.10;;;;;;;9.21;99.32;94950.72;5051874;28;20068;-63
2024/03/28 11:23:34;;;;;;;2.42;0.20;;;;;;;9.30;93.03;94975.13;5056606;28;20054;-64
2024/03/28 11:26:03;;;;;;;1.33;0.22;;;;;;;9.18;91.99;94962.16;5052219;28;20083;-64
2024/03/28 11:28:30;;;;;;;0.30;0.30;;;;;;;9.28;96.55;94936.84;5058635;28;20036;-62
2024/03/28 11:30:56;;;;;;;0.50;0.20;;;;;;;9.44;100.00;94942.69;5049472;28;20098;-64
2024/03/28 11:33:28;;;;;;;0.95;0.30;;;;;;;9.76;97.31;94966.00;5053670;28;20079;-64
2024/03/28 11:35:56;;;;;;;;;;;;;;;9.86;90.52;94964.16;5052291;28;20091;-65
2024/03/28 11:38:22;;;;;;;0.88;0.32;;;;;;;10.09;90.43;94956.84;5050102;28;19924;-64